createdAt,value
2022-12-02T00:00:00.771Z,49.55
2022-12-02T00:02:33.721Z,41.53
2022-12-02T00:05:22.104Z,44.25
2022-12-02T00:07:54.461Z,41.13
2022-12-02T00:10:26.638Z,43.47
2022-12-02T00:12:54.107Z,39.63
2022-12-02T00:15:42.398Z,40.70
2022-12-02T00:18:14.419Z,37.80
2022-12-02T00:20:42.611Z,38.85
2022-12-02T00:23:10.744Z,40.13
2022-12-02T00:25:37.976Z,43.75
2022-12-02T00:28:05.675Z,43.75
2022-12-02T00:30:33.143Z,40.03
2022-12-02T00:33:00.469Z,42.28
2022-12-02T00:35:27.796Z,37.90
2022-12-02T00:37:55.156Z,43.10
2022-12-02T00:40:22.529Z,41.13
2022-12-02T00:42:49.809Z,37.28
2022-12-02T00:45:36.144Z,34.28
2022-12-02T00:48:03.743Z,36.20
2022-12-02T00:50:30.971Z,34.40
2022-12-02T00:52:58.190Z,46.03
2022-12-02T00:55:25.201Z,43.40
2022-12-02T00:57:52.419Z,44.75
2022-12-02T01:00:20.118Z,47.22
2022-12-02T01:02:47.362Z,50.03
2022-12-02T01:05:14.601Z,49.63
2022-12-02T01:07:41.824Z,51.83
2022-12-02T01:10:09.574Z,52.00
2022-12-02T01:12:36.842Z,54.15
2022-12-02T01:15:04.773Z,49.25
2022-12-02T01:17:32.779Z,52.67
2022-12-02T01:19:59.944Z,53.95
2022-12-02T01:22:27.145Z,50.92
2022-12-02T01:24:54.314Z,54.42
2022-12-02T01:27:21.718Z,47.45
2022-12-02T01:29:48.929Z,47.58
2022-12-02T01:32:16.436Z,48.58
2022-12-02T01:34:43.750Z,52.15
2022-12-02T01:37:11.078Z,45.10
2022-12-02T01:39:38.494Z,53.72
2022-12-02T01:42:06.017Z,51.88
2022-12-02T01:44:33.656Z,48.58
2022-12-02T01:47:00.989Z,52.25
2022-12-02T01:49:28.843Z,49.10
2022-12-02T01:51:56.302Z,48.80
2022-12-02T01:54:23.498Z,52.22
2022-12-02T01:56:50.921Z,48.85
2022-12-02T01:59:19.173Z,50.10
2022-12-02T02:01:46.480Z,45.67
2022-12-02T02:04:13.913Z,47.70
2022-12-02T02:06:46.984Z,45.15
2022-12-02T02:09:15.383Z,46.30
2022-12-02T02:11:42.825Z,46.38
2022-12-02T02:14:12.991Z,44.17
2022-12-02T02:19:13.796Z,45.80
2022-12-02T02:21:46.667Z,47.38
2022-12-02T02:24:14.645Z,40.72
2022-12-02T02:26:42.585Z,46.10
2022-12-02T02:29:10.505Z,42.83
2022-12-02T02:31:39.595Z,51.33
2022-12-02T02:34:07.547Z,45.58
2022-12-02T02:36:35.636Z,45.83
2022-12-02T02:39:04.636Z,44.72
2022-12-02T02:41:34.107Z,45.60
2022-12-02T02:44:02.037Z,42.03
2022-12-02T02:46:30.211Z,43.75
2022-12-02T02:48:58.275Z,42.67
2022-12-02T02:51:25.896Z,46.30
2022-12-02T02:53:53.386Z,40.92
2022-12-02T02:56:21.480Z,44.83
2022-12-02T02:58:49.186Z,45.92
2022-12-02T03:01:25.161Z,45.33
2022-12-02T03:03:59.646Z,47.45
2022-12-02T03:06:30.436Z,45.60
2022-12-02T03:09:00.066Z,46.67
2022-12-02T03:11:29.475Z,50.78
2022-12-02T03:13:58.005Z,45.40
2022-12-02T03:16:27.147Z,48.97
2022-12-02T03:18:56.455Z,50.83
2022-12-02T03:21:26.239Z,47.88
2022-12-02T03:23:57.507Z,46.53
2022-12-02T03:26:25.476Z,47.00
2022-12-02T03:28:54.204Z,43.95
2022-12-02T03:31:22.503Z,44.30
2022-12-02T03:33:51.126Z,46.78
2022-12-02T03:36:19.065Z,43.33
2022-12-02T03:38:47.006Z,46.00
2022-12-02T03:41:15.145Z,48.38
2022-12-02T03:43:43.385Z,45.47
2022-12-02T03:46:12.183Z,43.70
2022-12-02T03:48:40.532Z,47.25
2022-12-02T03:51:09.884Z,45.88
2022-12-02T03:53:38.115Z,45.03
2022-12-02T03:56:07.774Z,44.08
2022-12-02T03:58:55.766Z,40.78
2022-12-02T04:01:24.525Z,48.30
2022-12-02T04:03:52.095Z,45.83
2022-12-02T04:06:19.715Z,45.92
2022-12-02T04:08:47.557Z,42.92
2022-12-02T04:11:15.436Z,45.20
2022-12-02T04:13:43.158Z,44.50
2022-12-02T04:16:10.714Z,48.53
2022-12-02T04:18:38.246Z,42.42
2022-12-02T04:21:05.985Z,47.75
2022-12-02T04:23:33.525Z,46.78
2022-12-02T04:26:01.071Z,42.60
2022-12-02T04:28:28.736Z,46.05
2022-12-02T04:30:56.629Z,46.00
2022-12-02T04:33:24.166Z,42.70
2022-12-02T04:35:51.757Z,37.13
2022-12-02T04:38:19.686Z,43.90
2022-12-02T04:40:47.476Z,39.90
2022-12-02T04:43:14.976Z,39.08
2022-12-02T04:45:42.682Z,39.10
2022-12-02T04:48:10.216Z,39.35
2022-12-02T04:50:37.779Z,38.80
2022-12-02T04:53:05.335Z,34.15
2022-12-02T04:55:33.016Z,36.08
2022-12-02T04:58:00.685Z,33.78
2022-12-02T05:00:28.165Z,33.58
2022-12-02T05:02:57.667Z,33.97
2022-12-02T05:05:25.235Z,30.95
2022-12-02T05:07:52.534Z,35.42
2022-12-02T05:10:20.106Z,33.70
2022-12-02T05:12:47.966Z,33.53
2022-12-02T05:15:15.846Z,31.77
2022-12-02T05:17:43.455Z,34.08
2022-12-02T05:20:11.937Z,32.45
2022-12-02T05:22:39.636Z,35.35
2022-12-02T05:25:07.495Z,33.00
2022-12-02T05:27:35.740Z,35.80
2022-12-02T05:30:06.065Z,32.67
2022-12-02T05:35:00.666Z,39.38
2022-12-02T05:37:28.014Z,36.15
2022-12-02T05:39:55.646Z,36.03
2022-12-02T05:42:23.345Z,37.05
2022-12-02T05:44:50.823Z,42.47
2022-12-02T05:47:19.948Z,38.15
2022-12-02T05:49:47.635Z,36.97
2022-12-02T05:52:25.070Z,39.50
2022-12-02T05:54:58.509Z,41.38
2022-12-02T05:57:30.911Z,38.53
2022-12-02T06:00:12.640Z,40.72
2022-12-02T06:02:46.656Z,38.38
2022-12-02T06:05:26.062Z,37.13
2022-12-02T06:07:59.568Z,39.95
2022-12-02T06:10:32.620Z,41.38
2022-12-02T06:13:14.683Z,45.72
2022-12-02T06:15:42.115Z,45.97
2022-12-02T06:18:23.479Z,38.50
2022-12-02T06:21:00.015Z,38.03
2022-12-02T06:23:31.467Z,43.97
2022-12-02T06:25:59.701Z,42.28
2022-12-02T06:28:30.788Z,43.05
2022-12-02T06:31:20.030Z,43.22
2022-12-02T06:33:50.418Z,42.37
2022-12-02T06:36:27.983Z,42.30
2022-12-02T06:38:57.777Z,42.08
2022-12-02T06:41:29.314Z,42.17
2022-12-02T06:44:30.574Z,41.83
2022-12-02T06:47:00.271Z,40.30
2022-12-02T06:49:38.270Z,39.35
2022-12-02T06:52:23.129Z,44.72
2022-12-02T06:54:53.490Z,40.97
2022-12-02T06:57:21.151Z,43.53
2022-12-02T06:59:49.590Z,41.70
2022-12-02T07:02:27.857Z,38.22
2022-12-02T07:04:55.921Z,39.63
2022-12-02T07:07:27.485Z,44.08
2022-12-02T07:10:00.904Z,42.03
2022-12-02T07:12:35.530Z,44.42
2022-12-02T07:15:32.141Z,40.60
2022-12-02T07:18:10.003Z,44.53
2022-12-02T07:20:39.847Z,51.85
2022-12-02T07:23:24.756Z,51.10
2022-12-02T07:25:54.432Z,54.33
2022-12-02T07:28:43.568Z,49.22
2022-12-02T07:31:23.138Z,56.80
2022-12-02T07:33:50.583Z,50.35
2022-12-02T07:36:18.718Z,49.08
2022-12-02T07:41:37.219Z,54.28
2022-12-02T07:44:05.861Z,49.55
2022-12-02T07:46:33.227Z,48.92
2022-12-02T07:49:00.494Z,46.88
2022-12-02T07:51:27.938Z,45.90
2022-12-02T07:53:55.284Z,47.75
2022-12-02T07:56:22.550Z,49.85
2022-12-02T08:01:37.148Z,48.30
2022-12-02T08:04:04.468Z,45.72
2022-12-02T08:06:37.363Z,51.15
2022-12-02T08:09:06.708Z,53.33
2022-12-02T08:11:34.011Z,48.72
2022-12-02T08:14:02.489Z,45.58
2022-12-02T08:16:30.308Z,52.17
2022-12-02T08:18:58.345Z,52.90
2022-12-02T08:21:25.795Z,52.28
2022-12-02T08:23:53.675Z,57.08
2022-12-02T08:26:21.386Z,53.13
2022-12-02T08:28:53.691Z,49.65
2022-12-02T08:31:22.808Z,50.88
2022-12-02T08:33:51.475Z,49.00
2022-12-02T08:36:19.975Z,53.42
2022-12-02T08:38:48.516Z,51.25
2022-12-02T08:41:16.556Z,45.88
2022-12-02T08:43:44.027Z,53.53
2022-12-02T08:46:12.600Z,52.88
2022-12-02T08:48:40.460Z,54.42
2022-12-02T08:51:08.550Z,54.97
2022-12-02T08:53:36.148Z,56.25
2022-12-02T08:56:03.426Z,50.28
2022-12-02T08:58:30.858Z,53.30
2022-12-02T09:00:58.287Z,49.78
2022-12-02T09:03:25.517Z,52.55
2022-12-02T09:05:52.802Z,49.78
2022-12-02T09:08:20.210Z,50.28
2022-12-02T09:10:47.970Z,51.17
2022-12-02T09:13:15.417Z,53.15
2022-12-02T09:15:42.809Z,56.42
2022-12-02T09:18:14.271Z,51.60
2022-12-02T09:20:42.020Z,50.17
2022-12-02T09:23:09.289Z,49.45
2022-12-02T09:25:36.528Z,53.58
2022-12-02T09:28:03.700Z,48.95
2022-12-02T09:30:30.962Z,52.45
2022-12-02T09:32:58.360Z,51.15
2022-12-02T09:35:25.761Z,52.75
2022-12-02T09:37:53.102Z,52.22
2022-12-02T09:40:21.259Z,49.75
2022-12-02T09:42:48.711Z,52.05
2022-12-02T09:45:16.163Z,52.97
2022-12-02T09:47:43.765Z,50.05
2022-12-02T09:50:17.954Z,49.97
2022-12-02T09:52:45.653Z,46.03
2022-12-02T09:55:16.209Z,49.78
2022-12-02T09:57:44.069Z,55.75
2022-12-02T10:00:16.105Z,53.97
2022-12-02T10:02:50.175Z,50.45
2022-12-02T10:05:23.269Z,49.03
2022-12-02T10:07:52.676Z,55.47
2022-12-02T10:10:23.871Z,49.60
2022-12-02T10:12:52.705Z,53.13
2022-12-02T10:15:28.247Z,52.00
2022-12-02T10:17:56.968Z,51.88
2022-12-02T10:20:28.995Z,51.20
2022-12-02T10:23:16.947Z,53.78
2022-12-02T10:25:49.770Z,54.97
2022-12-02T10:28:26.518Z,48.30
2022-12-02T10:31:16.151Z,49.47
2022-12-02T10:33:59.783Z,41.92
2022-12-02T10:36:45.198Z,41.90
2022-12-02T10:39:21.747Z,39.67
2022-12-02T10:41:51.389Z,38.38
2022-12-02T10:44:22.641Z,38.30
2022-12-02T10:46:50.002Z,32.85
2022-12-02T10:49:26.211Z,39.05
2022-12-02T10:51:55.173Z,38.72
2022-12-02T10:54:29.607Z,36.83
2022-12-02T10:56:57.478Z,35.75
2022-12-02T10:59:24.856Z,35.53
2022-12-02T11:01:52.187Z,35.50
2022-12-02T11:04:20.356Z,40.63
2022-12-02T11:06:49.491Z,40.03
2022-12-02T11:09:39.611Z,42.65
2022-12-02T11:12:30.458Z,39.13
2022-12-02T11:14:57.818Z,36.40
2022-12-02T11:17:53.566Z,41.22
2022-12-02T11:20:35.864Z,39.60
2022-12-02T11:23:18.247Z,39.22
2022-12-02T11:25:47.956Z,42.78
2022-12-02T11:28:31.485Z,36.88
2022-12-02T11:31:11.245Z,38.22
2022-12-02T11:34:06.199Z,37.22
2022-12-02T11:36:36.247Z,40.22
2022-12-02T11:39:08.892Z,40.90
2022-12-02T11:41:48.124Z,40.92
2022-12-02T11:44:27.096Z,41.93
2022-12-02T11:47:04.800Z,44.33
2022-12-02T11:49:41.793Z,38.15
2022-12-02T11:52:09.335Z,36.17
2022-12-02T11:54:41.953Z,38.75
2022-12-02T11:57:22.545Z,40.90
2022-12-02T11:59:50.620Z,34.83
2022-12-02T12:02:20.328Z,37.75
2022-12-02T12:04:59.415Z,36.67
2022-12-02T12:07:41.818Z,37.10
2022-12-02T12:10:27.807Z,41.92
2022-12-02T12:13:15.978Z,37.47
2022-12-02T12:15:59.642Z,38.38
2022-12-02T12:18:45.164Z,36.28
2022-12-02T12:21:35.731Z,35.22
2022-12-02T12:24:18.594Z,39.63
2022-12-02T12:26:51.189Z,38.67
2022-12-02T12:29:20.577Z,38.15
2022-12-02T12:31:48.305Z,34.58
2022-12-02T12:34:19.014Z,38.83
2022-12-02T12:36:47.266Z,37.05
2022-12-02T12:39:15.508Z,37.47
2022-12-02T12:42:00.098Z,40.55
2022-12-02T12:44:30.618Z,40.47
2022-12-02T12:47:00.279Z,43.67
2022-12-02T12:49:28.530Z,46.47
2022-12-02T12:51:56.072Z,42.60
2022-12-02T12:54:23.311Z,40.20
2022-12-02T12:56:50.680Z,40.92
2022-12-02T12:59:18.013Z,40.72
2022-12-02T13:01:45.453Z,40.03
2022-12-02T13:04:12.913Z,47.75
2022-12-02T13:06:42.945Z,40.78
2022-12-02T13:09:12.510Z,41.08
2022-12-02T13:11:40.764Z,40.00
2022-12-02T13:14:08.910Z,41.40
2022-12-02T13:16:36.521Z,41.15
2022-12-02T13:19:04.300Z,38.85
2022-12-02T13:21:31.595Z,38.25
2022-12-02T13:23:58.990Z,44.50
2022-12-02T13:26:26.311Z,49.83
2022-12-02T13:28:53.772Z,40.47
2022-12-02T13:31:21.449Z,40.75
2022-12-02T13:33:48.726Z,42.20
2022-12-02T13:36:16.524Z,39.30
2022-12-02T13:38:43.855Z,47.38
2022-12-02T13:41:11.685Z,45.05
2022-12-02T13:43:39.296Z,48.40
2022-12-02T13:46:08.752Z,48.05
2022-12-02T13:48:36.904Z,42.72
2022-12-02T13:51:04.986Z,46.85
2022-12-02T13:53:32.746Z,43.60
2022-12-02T13:56:00.387Z,42.80
2022-12-02T13:58:28.656Z,47.75
2022-12-02T14:00:55.905Z,42.53
2022-12-02T14:03:23.831Z,40.60
2022-12-02T14:05:51.865Z,44.45
2022-12-02T14:08:19.871Z,46.60
2022-12-02T14:10:47.346Z,47.50
2022-12-02T14:13:19.483Z,43.28
2022-12-02T14:15:47.043Z,44.65
2022-12-02T14:18:14.480Z,49.10
2022-12-02T14:20:41.744Z,53.20
2022-12-02T14:23:11.987Z,47.65
2022-12-02T14:25:39.408Z,48.47
2022-12-02T14:28:06.578Z,52.78
2022-12-02T14:30:34.075Z,50.65
2022-12-02T14:33:01.351Z,48.28
2022-12-02T14:35:28.842Z,48.17
2022-12-02T14:37:56.360Z,49.25
2022-12-02T14:40:23.757Z,48.40
2022-12-02T14:42:51.102Z,43.60
2022-12-02T14:45:18.635Z,48.53
2022-12-02T14:47:45.953Z,43.70
2022-12-02T14:50:13.319Z,44.05
2022-12-02T14:52:40.713Z,46.10
2022-12-02T14:55:08.541Z,43.35
2022-12-02T14:57:35.943Z,41.25
2022-12-02T15:00:04.789Z,45.53
2022-12-02T15:02:32.150Z,44.80
2022-12-02T15:04:59.550Z,45.65
2022-12-02T15:07:26.942Z,47.15
2022-12-02T15:09:54.343Z,43.53
2022-12-02T15:12:21.740Z,39.22
2022-12-02T15:14:49.043Z,46.55
2022-12-02T15:17:16.464Z,50.97
2022-12-02T15:19:43.694Z,46.65
2022-12-02T15:22:10.937Z,42.88
2022-12-02T15:24:38.183Z,40.78
2022-12-02T15:27:05.752Z,45.97
2022-12-02T15:29:33.058Z,41.67
2022-12-02T15:32:00.522Z,40.67
2022-12-02T15:34:27.875Z,44.88
2022-12-02T15:36:55.267Z,43.22
2022-12-02T15:39:22.644Z,44.08
2022-12-02T15:41:49.955Z,43.67
2022-12-02T15:44:17.204Z,44.33
2022-12-02T15:46:44.694Z,40.83
2022-12-02T15:49:12.026Z,40.67
2022-12-02T15:51:39.365Z,36.35
2022-12-02T15:54:06.795Z,41.42
2022-12-02T15:56:34.547Z,44.50
2022-12-02T15:59:02.211Z,43.42
2022-12-02T16:01:29.952Z,43.17
2022-12-02T16:03:57.463Z,44.75
2022-12-02T16:06:24.931Z,49.42
2022-12-02T16:08:55.450Z,39.70
2022-12-02T16:11:23.495Z,41.85
2022-12-02T16:13:52.898Z,37.90
2022-12-02T16:16:21.682Z,37.85
2022-12-02T16:18:50.082Z,46.22
2022-12-02T16:21:18.736Z,37.35
2022-12-02T16:23:46.709Z,37.25
2022-12-02T16:26:14.165Z,33.58
2022-12-02T16:28:43.878Z,37.33
2022-12-02T16:31:11.853Z,43.22
2022-12-02T16:33:39.247Z,34.67
2022-12-02T16:36:09.236Z,37.50
2022-12-02T16:41:04.798Z,38.67
2022-12-02T16:43:32.626Z,43.47
2022-12-02T16:46:00.414Z,46.80
2022-12-02T16:48:28.327Z,42.28
2022-12-02T16:50:56.324Z,38.13
2022-12-02T16:53:24.085Z,38.47
2022-12-02T16:55:51.840Z,48.15
2022-12-02T16:58:19.576Z,41.00
2022-12-02T17:00:47.405Z,40.70
2022-12-02T17:03:15.146Z,44.90
2022-12-02T17:05:44.248Z,45.37
2022-12-02T17:08:12.421Z,43.97
2022-12-02T17:10:40.185Z,43.88
2022-12-02T17:13:07.884Z,43.22
2022-12-02T17:15:35.626Z,42.05
2022-12-02T17:18:03.347Z,44.92
2022-12-02T17:20:30.887Z,48.60
2022-12-02T17:22:59.500Z,47.80
2022-12-02T17:25:27.187Z,45.50
2022-12-02T17:27:55.046Z,48.80
2022-12-02T17:30:23.015Z,44.30
2022-12-02T17:32:56.321Z,48.63
2022-12-02T17:35:24.837Z,48.60
2022-12-02T17:37:52.716Z,48.35
2022-12-02T17:40:20.585Z,49.85
2022-12-02T17:42:48.185Z,44.28
2022-12-02T17:45:15.936Z,48.85
2022-12-02T17:47:43.505Z,47.17
2022-12-02T17:50:14.510Z,43.03
2022-12-02T17:52:43.056Z,46.08
2022-12-02T17:55:11.093Z,46.50
2022-12-02T17:57:38.884Z,42.63
2022-12-02T18:00:07.215Z,46.88
2022-12-02T18:02:34.770Z,43.42
2022-12-02T18:05:03.097Z,45.70
2022-12-02T18:07:33.916Z,47.40
2022-12-02T18:10:01.947Z,42.95
2022-12-02T18:12:29.717Z,45.70
2022-12-02T18:14:57.807Z,48.30
2022-12-02T18:17:25.665Z,42.40
2022-12-02T18:19:54.879Z,42.47
2022-12-02T18:22:22.565Z,44.25
2022-12-02T18:24:50.619Z,46.60
2022-12-02T18:27:18.686Z,43.25
2022-12-02T18:29:47.085Z,46.85
2022-12-02T18:32:14.785Z,42.65
2022-12-02T18:34:42.755Z,43.47
2022-12-02T18:37:12.328Z,43.55
2022-12-02T18:39:40.106Z,48.70
2022-12-02T18:42:07.835Z,46.20
2022-12-02T18:44:35.597Z,50.92
2022-12-02T18:47:03.405Z,45.58
2022-12-02T18:49:31.136Z,46.95
2022-12-02T18:51:59.225Z,53.13
2022-12-02T18:54:27.587Z,50.72
2022-12-02T18:56:56.375Z,45.87
2022-12-02T18:59:23.725Z,45.00
2022-12-02T19:01:51.463Z,48.75
2022-12-02T19:04:20.195Z,45.90
2022-12-02T19:06:47.859Z,49.30
2022-12-02T19:09:15.978Z,47.33
2022-12-02T19:11:43.201Z,47.00
2022-12-02T19:14:10.358Z,49.75
2022-12-02T19:16:38.080Z,45.33
2022-12-02T19:19:05.795Z,47.28
2022-12-02T19:21:33.126Z,46.22
2022-12-02T19:24:00.378Z,49.28
2022-12-02T19:26:27.787Z,44.42
2022-12-02T19:28:55.205Z,50.22
2022-12-02T19:31:22.680Z,52.17
2022-12-02T19:33:50.067Z,51.22
2022-12-02T19:36:17.743Z,49.42
2022-12-02T19:38:45.130Z,53.20
2022-12-02T19:41:12.426Z,50.85
2022-12-02T19:43:40.013Z,56.70
2022-12-02T19:46:07.328Z,48.67
2022-12-02T19:48:34.779Z,51.53
2022-12-02T19:51:02.224Z,51.53
2022-12-02T19:53:29.530Z,49.35
2022-12-02T19:55:56.737Z,54.97
2022-12-02T19:58:23.950Z,51.78
2022-12-02T20:00:51.397Z,52.60
2022-12-02T20:03:18.730Z,52.58
2022-12-02T20:05:46.276Z,59.28
2022-12-02T20:08:13.599Z,58.53
2022-12-02T20:10:40.925Z,55.72
2022-12-02T20:13:08.157Z,58.72
2022-12-02T20:15:35.528Z,56.10
2022-12-02T20:18:02.813Z,52.78
2022-12-02T20:20:30.185Z,55.97
2022-12-02T20:22:57.417Z,56.60
2022-12-02T20:25:24.701Z,53.65
2022-12-02T20:27:54.664Z,60.88
2022-12-02T20:30:22.751Z,58.13
2022-12-02T20:32:50.215Z,60.83
2022-12-02T20:35:17.619Z,66.63
2022-12-02T20:37:45.168Z,62.88
2022-12-02T20:40:14.642Z,57.28
2022-12-02T20:42:42.302Z,66.05
2022-12-02T20:45:11.450Z,53.97
2022-12-02T20:47:38.738Z,58.40
2022-12-02T20:50:06.534Z,52.60
2022-12-02T20:52:33.856Z,53.20
2022-12-02T20:55:01.423Z,50.08
2022-12-02T20:57:28.700Z,55.67
2022-12-02T20:59:56.072Z,47.78
2022-12-02T21:02:23.406Z,48.10
2022-12-02T21:04:50.996Z,52.72
2022-12-02T21:07:18.624Z,56.20
2022-12-02T21:09:46.080Z,60.50
2022-12-02T21:12:13.476Z,53.60
2022-12-02T21:14:40.947Z,51.55
2022-12-02T21:17:08.194Z,54.72
2022-12-02T21:19:35.734Z,55.80
2022-12-02T21:22:03.004Z,51.35
2022-12-02T21:24:30.364Z,48.97
2022-12-02T21:26:57.866Z,59.45
2022-12-02T21:29:25.650Z,55.25
2022-12-02T21:31:53.426Z,50.78
2022-12-02T21:34:21.262Z,58.28
2022-12-02T21:36:48.875Z,48.13
2022-12-02T21:39:16.616Z,51.38
2022-12-02T21:41:45.365Z,49.00
2022-12-02T21:44:13.159Z,51.53
2022-12-02T21:46:40.889Z,56.13
2022-12-02T21:49:08.700Z,61.58
2022-12-02T21:51:36.276Z,55.85
2022-12-02T21:54:04.339Z,55.85
2022-12-02T21:56:36.429Z,69.30
2022-12-02T21:59:05.095Z,63.97
2022-12-02T22:01:38.972Z,69.80
2022-12-02T22:04:08.226Z,67.10
2022-12-02T22:06:35.906Z,68.53
2022-12-02T22:09:04.936Z,69.68
2022-12-02T22:11:32.684Z,59.95
2022-12-02T22:14:01.065Z,64.72
2022-12-02T22:16:28.887Z,60.42
2022-12-02T22:18:56.472Z,62.35
2022-12-02T22:21:24.595Z,59.42
2022-12-02T22:23:52.475Z,61.97
2022-12-02T22:26:20.445Z,65.32
2022-12-02T22:28:48.326Z,56.30
2022-12-02T22:31:16.046Z,62.65
2022-12-02T22:33:43.605Z,73.57
2022-12-02T22:36:11.646Z,71.18
2022-12-02T22:38:39.395Z,65.68
2022-12-02T22:41:07.186Z,69.50
2022-12-02T22:43:34.786Z,68.28
2022-12-02T22:46:02.715Z,68.28
2022-12-02T22:48:30.205Z,72.57
2022-12-02T22:50:57.657Z,64.85
2022-12-02T22:53:25.275Z,65.53
2022-12-02T22:55:53.255Z,64.45
2022-12-02T22:58:21.075Z,77.47
2022-12-02T23:00:48.904Z,65.35
2022-12-02T23:03:16.755Z,68.05
2022-12-02T23:05:44.177Z,68.45
2022-12-02T23:08:14.309Z,73.68
2022-12-02T23:10:42.230Z,70.65
2022-12-02T23:13:11.641Z,65.07
2022-12-02T23:15:42.572Z,67.13
2022-12-02T23:18:10.810Z,65.20
2022-12-02T23:20:38.772Z,74.78
2022-12-02T23:23:06.093Z,65.60
2022-12-02T23:25:33.420Z,65.82
2022-12-02T23:28:01.216Z,66.85
2022-12-02T23:30:29.738Z,63.50
2022-12-02T23:33:00.294Z,68.82
2022-12-02T23:35:28.053Z,61.72
2022-12-02T23:37:55.369Z,69.13
2022-12-02T23:40:22.745Z,68.80
2022-12-02T23:42:50.076Z,67.57
2022-12-02T23:45:17.412Z,72.43
2022-12-02T23:47:44.720Z,67.97
2022-12-02T23:50:12.408Z,63.42
2022-12-02T23:52:39.603Z,66.32
2022-12-02T23:55:07.439Z,70.60
2022-12-02T23:57:34.712Z,69.60
